Fish Lake Valley, Nevada Weather observations

Data are for 10 minute period ending at time listed.
 Day   Time    Ave.   Ave.  Ave.  Vector   Max.   Stn.    Total    Solar   Ave.  
  of    of     Air    Rel.  Wind   Wind    Wind   Baro.  Precip.   Rad.    Soil  
Year   Day     Temp.  Hum.  Speed  Dir.    Gust   Pres.                    Temp. 
2017   (PST)    F      %     mph   deg.    mph     mb.     in.     W/m2     F    
--------------------------------------------------------------------------------- 
  52    0:00   40.8    80   16.9   128     20.1   854.8    0.00       2    42.9  
  52    0:10   40.8    81   15.8   121     18.5   855.0    0.00       2    42.9  
  52    0:20   41.1    80   16.2   120     20.7   855.0    0.00       2    42.8  
  52    0:30   41.7    79   17.4   118     21.8   855.0    0.00       2    42.8  
  52    0:40   41.7    79   17.6   121     22.3   854.9    0.00       2    42.8  
  52    0:50   42.0    78   19.0   118     23.7   854.9    0.00       2    42.8  
  52    1:00   42.3    78   19.4   119     23.5   854.9    0.00       2    42.8  
  52    1:10   42.4    78   19.2   117     26.5   855.0    0.00       2    42.8  
  52    1:20   42.7    78   19.7   115     24.6   854.9    0.00       2    42.7  
  52    1:30   42.8    77   19.5   120     25.0   854.9    0.00       2    42.7  
  52    1:40   42.7    77   18.8   117     25.5   854.8    0.00       2    42.7  
  52    1:50   42.3    79   18.4   112     22.5   855.0    0.00       2    42.7  
  52    2:00   42.3    78   17.8   117     23.0   855.0    0.00       2    42.7  
  52    2:10   42.5    78   16.5   123     22.1   855.2    0.00       2    42.6  
  52    2:20   42.7    78   17.8   114     22.9   855.1    0.00       2    42.6  
  52    2:30   43.1    76   17.8   110     22.1   855.1    0.00       2    42.6  
  52    2:40   43.2    76   17.0   112     23.4   855.2    0.00       2    42.6  
  52    2:50   43.2    76   18.1   116     23.0   855.3    0.00       2    42.6  
  52    3:00   42.9    78   18.2   112     22.2   855.2    0.00       2    42.5  
  52    3:10   42.5    79   16.9   112     22.3   855.3    0.00       2    42.5  
  52    3:20   42.4    79   17.1   110     22.2   855.1    0.00       2    42.5  
  52    3:30   42.7    77   17.5   110     21.8   855.1    0.00       2    42.5  
  52    3:40   42.7    77   17.6   112     22.8   855.1    0.00       2    42.5  
  52    3:50   42.6    78   17.9   110     22.3   855.2    0.00       2    42.4  
  52    4:00   42.2    78   17.6   108     21.2   855.1    0.00       2    42.4  
  52    4:10   42.4    76   17.3   105     22.9   855.2    0.00       2    42.4  
  52    4:20   42.4    76   17.0   104     22.5   855.2    0.00       2    42.4  
  52    4:30   42.2    77   16.2   104     20.4   855.4    0.00       2    42.4  
  52    4:40   42.2    77   16.4   105     20.1   855.3    0.00       2    42.3  
  52    4:50   42.0    78   17.0   107     21.6   855.3    0.00       2    42.3  
  52    5:00   42.2    78   18.2   108     21.5   855.3    0.00       2    42.3  
  52    5:10   42.1    78   17.1   108     21.0   855.3    0.00       2    42.3  
  52    5:20   41.8    79   16.8   111     20.3   855.3    0.00       2    42.3  
  52    5:30   41.9    79   17.8   112     22.3   855.2    0.00       2    42.3  
  52    5:40   41.8    79   18.5   110     25.0   854.9    0.00       2    42.2  
  52    5:50   41.9    79   18.4   113     22.3   855.1    0.00       2    42.2  
  52    6:00   41.9    79   19.4   112     22.9   855.0    0.00       2    42.2  
  52    6:10   41.8    79   18.7   110     22.8   855.1    0.00       2    42.2  
  52    6:20   41.6    80   18.2   111     23.4   855.2    0.00       2    42.2  
  52    6:30   41.5    80   18.2   107     22.2   855.1    0.00       3    42.1  
  52    6:40   41.5    80   19.5   110     23.5   854.9    0.00       6    42.1  
  52    6:50   41.8    80   20.2   112     24.9   854.9    0.00      17    42.1  
  52    7:00   42.0    80   18.0   107     21.3   855.1    0.00      29    42.1  
  52    7:10   42.2    80   17.8   112     22.0   855.1    0.00      49    42.1  
  52    7:20   42.1    80   19.2   115     24.6   855.2    0.00      57    42.1  
  52    7:30   42.1    81   20.4   115     24.7   855.3    0.00      76    42.0  
  52    7:40   42.2    82   20.4   113     26.1   855.3    0.00     103    42.0  
  52    7:50   42.8    80   18.7   120     23.4   855.6    0.00     129    42.0  
  52    8:00   43.4    78   16.7   110     20.0   855.8    0.00     135    42.0  
  52    8:10   43.8    77   18.0   104     23.1   855.8    0.00     176    42.0  
  52    8:20   44.0    78   18.7    99     23.4   855.7    0.00     181    42.0  
  52    8:30   44.8    74   18.8   107     24.8   855.6    0.00     198    42.0  
  52    8:40   45.6    72   19.3   124     24.5   855.7    0.00     228    41.9  
  52    8:50   46.0    71   19.2   132     24.6   855.8    0.00     258    41.9  
  52    9:00   46.1    70   20.6   132     25.3   855.8    0.00     287    41.9  
  52    9:10   46.8    69   20.6   126     25.9   855.6    0.00     407    41.9  
  52    9:20   47.1    68   23.2   131     29.1   855.4    0.00     402    41.9  
  52    9:30   47.3    68   23.9   138     30.2   855.4    0.00     437    41.9  
  52    9:40   47.8    67   22.9   132     29.4   855.4    0.00     426    41.9  
  52    9:50   47.9    66   24.1   142     30.4   855.3    0.00     447    41.9  
  52   10:00   47.9    66   23.5   149     27.7   855.3    0.00     462    41.8  
  52   10:10   48.8    65   24.0   148     32.2   855.3    0.00     544    41.8  
  52   10:20   48.9    64   23.6   147     28.6   855.2    0.00     618    41.8  
  52   10:30   49.5    63   24.1   148     32.7   855.1    0.00     667    41.8  
  52   10:40   49.6    63   26.5   148     31.7   855.0    0.00     712    41.8  
  52   10:50   50.0    62   26.3   150     32.6   854.9    0.00     713    41.8  
  52   11:00   49.9    62   26.6   153     32.6   854.8    0.00     683    41.8  
  52   11:10   50.6    61   25.6   150     31.9   854.8    0.00     750    41.8  
  52   11:20   51.3    60   25.5   148     31.6   854.8    0.00     758    41.8  
  52   11:30   50.9    62   26.2   142     32.6   854.7    0.00     718    41.8  
  52   11:40   51.1    64   25.1   135     30.0   854.4    0.00     765    41.8  
  52   11:50   51.2    63   25.8   137     34.8   854.2    0.00     755    41.8  
  52   12:00   51.4    62   25.0   144     30.0   854.1    0.00     759    41.8  
  52   12:10   51.3    61   26.3   143     32.0   853.8    0.00     671    41.9  
  52   12:20   51.2    62   24.0   144     30.8   853.9    0.00     464    41.9  
  52   12:30   51.4    60   23.0   141     28.6   853.8    0.00     518    41.9  
  52   12:40   51.8    61   21.1   137     27.1   853.7    0.00     521    41.9  
  52   12:50   52.2    60   19.9   136     25.8   853.6    0.00     588    41.9  
  52   13:00   52.2    59   22.0   134     28.6   853.3    0.00     569    42.0  
  52   13:10   52.4    58   22.3   132     27.8   853.1    0.00     621    42.0  
  52   13:20   52.9    56   22.0   131     28.4   852.9    0.00     627    42.1  
  52   13:30   53.3    56   21.9   128     29.6   852.8    0.00     677    42.1  
  52   13:40   53.8    55   22.6   134     28.4   852.6    0.00     683    42.1  
  52   13:50   54.3    53   23.0   133     31.3   852.4    0.00     666    42.2  
  52   14:00   55.0    52   21.8   139     32.4   852.4    0.00     667    42.2  
  52   14:10   56.3    41   20.4   154     30.2   852.4    0.00     647    42.3  
  52   14:20   57.2    40   16.6   173     24.4   852.6    0.00     625    42.3  
  52   14:30   57.5    34   13.3   158     22.7   852.6    0.00     608    42.4  
  52   14:40   57.9    28   18.1   164     27.5   852.3    0.00     573    42.5  
  52   14:50   58.5    27   16.4   174     28.6   852.5    0.00     550    42.5  
  52   15:00   58.3    26   12.2   167     22.5   852.6    0.00     529    42.6  
  52   15:10   58.0    25   19.6   183     30.7   852.5    0.00     499    42.7  
  52   15:20   57.8    24   17.6   201     27.2   852.6    0.00     483    42.7  
  52   15:30   57.6    24   16.1   190     30.4   852.8    0.00     380    42.8  
  52   15:40   56.9    23   18.6   183     25.8   852.7    0.00     386    42.8  
  52   15:50   56.7    24   17.6   187     28.5   852.8    0.00     374    42.9  
  52   16:00   57.0    23    8.2   206     17.0   852.8    0.00     338    43.0  
  52   16:10   56.4    23   12.1   187     21.8   852.7    0.00     303    43.1  
  52   16:20   56.3    26   10.8   194     21.1   852.5    0.00     267    43.1  
  52   16:30   55.2    30   16.8   156     25.6   852.4    0.00     225    43.2  
  52   16:40   55.0    29   13.6   174     20.5   852.6    0.00     173    43.3  
  52   16:50   53.6    26   17.1   177     25.3   852.6    0.00      45    43.4  
  52   17:00   52.6    27   11.4   205     17.9   852.9    0.00      22    43.4  
  52   17:10   52.5    26    8.7   204     17.0   852.9    0.00      18    43.5  
  52   17:20   51.7    28    9.7   223     14.7   852.9    0.00      14    43.6  
  52   17:30   50.7    29    9.8   230     14.9   852.9    0.00      11    43.7  
  52   17:40   49.7    31    9.2   231     12.4   852.7    0.00       8    43.7  
  52   17:50   48.1    36    6.5   228      9.1   852.7    0.00       5    43.8  
  52   18:00   46.5    41    4.7   224      7.0   852.6    0.00       3    43.9  
  52   18:10   45.3    43    4.6   227      6.0   852.7    0.00       2    43.9  
  52   18:20   44.2    48    4.5   231      7.6   852.4    0.00       2    44.0  
  52   18:30   46.0    41    9.3   208     15.1   852.4    0.00       2    44.1  
  52   18:40   47.2    39   10.1   179     13.9   852.5    0.00       2    44.1  
  52   18:50   47.0    38   11.4   173     16.2   852.5    0.00       2    44.2  
  52   19:00   45.4    43    8.6   179     13.3   852.6    0.00       2    44.2  
  52   19:10   44.4    44    7.3   170      9.3   852.6    0.00       2    44.3  
  52   19:20   45.2    40    8.9   171     13.1   852.5    0.00       2    44.3  
  52   19:30   45.7    39    8.6   167     11.2   852.5    0.00       2    44.4  
  52   19:40   43.4    46    6.4   167      9.7   852.5    0.00       2    44.4  
  52   19:50   44.0    42    8.6   175     12.4   852.5    0.00       2    44.4  
  52   20:00   44.2    38   11.0   181     14.5   852.5    0.00       2    44.5  
  52   20:10   46.6    31   12.5   174     16.8   852.5    0.00       2    44.5  
  52   20:20   43.7    38    9.8   183     12.7   852.5    0.00       2    44.5  
  52   20:30   42.7    39   10.0   188     12.8   852.6    0.00       2    44.5  
  52   20:40   41.6    43    9.6   185     11.8   852.6    0.00       2    44.5  
  52   20:50   40.6    44   10.4   186     12.7   852.6    0.00       2    44.5  
  52   21:00   42.3    38   14.2   186     17.4   852.5    0.00       2    44.5  
  52   21:10   43.1    35   16.1   186     22.6   852.4    0.00       2    44.5  
  52   21:20   43.7    33   16.7   187     21.8   852.4    0.00       2    44.5  
  52   21:30   43.1    34   15.7   190     19.7   852.4    0.00       2    44.5  
  52   21:40   42.4    36   12.6   189     17.0   852.5    0.00       2    44.5  
  52   21:50   42.0    37   12.4   190     14.9   852.4    0.00       2    44.5  
  52   22:00   41.7    38   11.4   185     14.8   852.3    0.00       2    44.5  
  52   22:10   41.2    39   10.4   180     13.7   852.4    0.00       2    44.5  
  52   22:20   40.3    44    7.7   142     10.3   852.4    0.00       2    44.5  
  52   22:30   37.2    52    8.8   111     15.7   852.5    0.00       2    44.4  
  52   22:40   37.6    50    9.1   149     13.1   852.4    0.00       2    44.4  
  52   22:50   40.9    39    8.2   222     13.9   852.5    0.00       2    44.4  
  52   23:00   42.5    36    6.1   199     11.2   852.6    0.00       2    44.4  
  52   23:10   41.4    40    4.7   216      7.4   852.6    0.00       2    44.4  
  52   23:20   39.7    44    2.9   196      6.0   852.6    0.00       2    44.3  
  52   23:30   37.9    49    2.6   227      4.5   852.5    0.00       2    44.3  
  52   23:40   36.3    53    3.9   246      4.9   852.5    0.00       2    44.3  

Return to Fish Lake Valley, Nevada graphs page.


Western Regional Climate Center,wrcc@dri.edu